Time;durP1;ratioP1;P1;durP2;ratioP2;P2;SDS_P1;SDS_P2;PMS_P1;PMS_P2;Temp;Humidity;BMP_temperature;BMP_pressure;BME280_temperature;BME280_humidity;BME280_pressure;Samples;Min_cycle;Max_cycle;Signal;HPM_P1;HPM_P2
2022/05/01 00:03:49;;;;;;;69.53;17.87;;;;;;;9.97;62.81;101314.98;5164831;56;1143096;-71
2022/05/01 00:08:54;;;;;;;88.87;20.10;;;;;;;9.88;63.18;101315.57;5164760;56;1139201;-69
2022/05/01 00:14:00;;;;;;;110.30;25.47;;;;;;;9.75;63.63;101312.84;5164816;56;1139278;-73
2022/05/01 00:19:08;;;;;;;135.47;29.37;;;;;;;9.68;63.98;101308.02;5164564;56;1141070;-71
2022/05/01 00:24:14;;;;;;;139.93;31.17;;;;;;;9.58;64.31;101300.28;5162877;56;1141032;-72
2022/05/01 00:29:19;;;;;;;133.97;30.23;;;;;;;9.50;64.48;101298.94;5175463;56;1141110;-73
2022/05/01 00:39:49;;;;;;;130.97;28.30;;;;;;;9.56;64.97;101295.56;5245811;56;1143179;-69
2022/05/01 00:44:54;;;;;;;136.70;30.27;;;;;;;9.58;65.08;101291.89;5214646;56;1143319;-69
2022/05/01 00:50:00;;;;;;;100.67;23.50;;;;;;;9.55;65.11;101298.67;5151588;56;1143165;-70
2022/05/01 00:55:06;;;;;;;143.87;28.57;;;;;;;9.47;65.01;101290.38;5151691;57;1143184;-71
2022/05/01 01:00:12;;;;;;;135.73;27.67;;;;;;;9.36;64.99;101291.01;5151517;57;1143403;-72
2022/05/01 01:05:18;;;;;;;136.70;29.07;;;;;;;9.27;64.91;101294.69;5151588;57;1143168;-71
2022/05/01 01:10:23;;;;;;;149.13;30.73;;;;;;;9.09;64.77;101301.90;5151632;57;1141162;-69
2022/05/01 01:15:31;;;;;;;125.30;27.30;;;;;;;8.97;65.41;101290.75;5151711;57;1141071;-68
2022/05/01 01:20:40;;;;;;;105.03;25.17;;;;;;;8.86;65.68;101293.17;5151619;57;1141224;-71
2022/05/01 01:25:46;;;;;;;112.83;24.50;;;;;;;8.75;65.91;101301.22;5121352;57;1141038;-73
2022/05/01 01:36:17;;;;;;;74.17;18.47;;;;;;;8.66;66.34;101300.91;5192914;56;1138996;-71
2022/05/01 01:41:29;;;;;;;77.67;17.50;;;;;;;8.61;66.15;101300.30;5237908;56;1138967;-72
2022/05/01 01:46:35;;;;;;;77.67;18.47;;;;;;;8.53;66.14;101299.91;5237848;56;1139128;-67
2022/05/01 01:51:41;;;;;;;36.23;12.57;;;;;;;8.44;66.41;101292.03;5206540;56;1139118;-70
2022/05/01 01:56:46;;;;;;;44.43;12.03;;;;;;;8.40;66.87;101294.48;5237890;56;1138974;-69
2022/05/01 02:01:52;;;;;;;91.37;24.20;;;;;;;8.30;66.75;101290.14;5237684;56;1141076;-70
2022/05/01 02:06:57;;;;;;;84.00;18.63;;;;;;;8.30;67.04;101286.66;5237814;56;1141088;-69
2022/05/01 02:12:06;;;;;;;68.87;18.23;;;;;;;8.24;66.79;101287.86;5237788;56;1141095;-68
2022/05/01 02:17:12;;;;;;;74.33;20.53;;;;;;;8.19;67.25;101289.05;5237774;56;1139105;-68
2022/05/01 02:22:21;;;;;;;81.53;18.50;;;;;;;8.07;67.95;101290.58;5237800;56;1136949;-71
2022/05/01 02:27:25;;;;;;;67.62;19.17;;;;;;;8.07;67.95;101290.58;5237637;56;1136893;-74
2022/05/01 02:32:31;;;;;;;67.27;17.30;;;;;;;7.96;67.69;101286.34;5237765;56;1137006;-72
2022/05/01 02:37:37;;;;;;;53.23;14.80;;;;;;;7.89;67.84;101282.35;5173466;56;1136894;-71
2022/05/01 02:42:43;;;;;;;55.47;14.30;;;;;;;7.84;67.64;101278.64;5151477;57;1136980;-71
2022/05/01 02:47:50;;;;;;;41.43;14.10;;;;;;;7.75;67.59;101282.64;5159196;57;1136902;-68
2022/05/01 02:52:56;;;;;;;40.00;12.23;;;;;;;7.68;68.17;101279.08;5162675;57;1136910;-70
2022/05/01 02:58:02;;;;;;;44.27;12.13;;;;;;;7.60;68.36;101274.70;5162724;57;1136924;-68
2022/05/01 03:03:08;;;;;;;39.13;12.60;;;;;;;7.63;68.75;101266.19;5162382;57;1139045;-71
2022/05/01 03:08:14;;;;;;;34.77;11.33;;;;;;;7.71;69.01;101265.30;5162637;57;1139310;-69
2022/05/01 03:13:20;;;;;;;33.37;11.27;;;;;;;7.70;68.79;101264.06;5162439;57;1139006;-72
2022/05/01 03:23:49;;;;;;;38.42;13.13;;;;;;;7.64;68.70;101269.64;5162961;57;1137239;-72
2022/05/01 03:28:55;;;;;;;35.60;12.77;;;;;;;7.52;68.39;101270.30;5162530;57;1136970;-70
2022/05/01 03:34:04;;;;;;;44.97;12.23;;;;;;;7.41;68.56;101273.50;5164331;56;1134828;-70
2022/05/01 03:39:08;;;;;;;37.63;11.97;;;;;;;7.34;69.07;101270.79;5248357;56;21625;-72
2022/05/01 03:44:14;;;;;;;40.83;13.53;;;;;;;7.29;69.18;101273.69;5228587;56;1135015;-73
2022/05/01 03:49:20;;;;;;;31.50;11.37;;;;;;;7.27;69.21;101269.42;5174828;56;1138985;-69
2022/05/01 03:54:26;;;;;;;42.43;13.20;;;;;;;7.12;68.99;101272.84;5163877;56;1139200;-70
2022/05/01 03:59:32;;;;;;;59.57;15.60;;;;;;;6.87;69.37;101271.47;5163727;56;1138935;-73
2022/05/01 04:04:38;;;;;;;45.87;15.13;;;;;;;6.81;70.02;101287.55;5163529;56;1139170;-72
2022/05/01 04:09:44;;;;;;;42.80;13.17;;;;;;;6.74;70.41;101290.08;5163590;56;1139000;-71
2022/05/01 04:14:50;;;;;;;35.57;12.93;;;;;;;6.87;71.44;101282.45;5164122;56;1138972;-72
2022/05/01 04:19:55;;;;;;;32.78;10.72;;;;;;;7.03;71.48;101281.58;5164133;56;1141072;-68
2022/05/01 04:25:01;;;;;;;30.57;12.67;;;;;;;7.08;71.38;101284.45;5164459;56;1141301;-70
2022/05/01 04:30:08;;;;;;;33.33;12.83;;;;;;;6.95;71.47;101286.38;5164225;56;1141109;-71
2022/05/01 04:35:13;;;;;;;29.23;11.97;;;;;;;6.99;72.62;101299.78;5164104;57;1139065;-71
2022/05/01 04:40:20;;;;;;;24.87;11.93;;;;;;;6.93;73.17;101298.76;5164139;57;1138975;-69
2022/05/01 04:45:27;;;;;;;24.80;11.80;;;;;;;6.81;74.16;101295.43;5164179;57;1139052;-73
2022/05/01 04:50:34;;;;;;;26.03;12.30;;;;;;;6.80;74.94;101304.70;5163223;57;1139025;-71
2022/05/01 04:55:42;;;;;;;29.57;14.27;;;;;;;6.86;75.69;101301.78;5162980;57;1139029;-71
2022/05/01 05:00:48;;;;;;;28.37;12.30;;;;;;;6.99;76.46;101301.09;5162943;57;1139218;-72
2022/05/01 05:05:54;;;;;;;23.77;11.43;;;;;;;7.23;76.93;101307.34;5183356;56;1141092;-71
2022/05/01 05:10:59;;;;;;;38.03;12.30;;;;;;;7.47;77.57;101296.88;5249794;56;1141011;-73
2022/05/01 05:16:12;;;;;;;33.70;14.50;;;;;;;7.47;77.57;101296.88;5241542;56;1141008;-68
2022/05/01 05:21:14;;;;;;;34.07;12.63;;;;;;;7.89;78.81;101308.69;5173744;56;1141027;-73
2022/05/01 05:26:19;;;;;;;24.43;10.90;;;;;;;8.36;79.20;101303.02;5193054;56;1141035;-70
2022/05/01 05:31:25;;;;;;;21.27;11.95;;;;;;;8.75;79.00;101303.85;5168980;56;1141121;-72
2022/05/01 05:36:31;;;;;;;16.47;10.50;;;;;;;9.11;78.70;101308.79;5205558;56;1141049;-72
2022/05/01 05:41:37;;;;;;;24.30;11.73;;;;;;;9.39;77.47;101305.82;5195790;56;1141052;-74
2022/05/01 05:46:43;;;;;;;23.20;10.23;;;;;;;9.60;77.02;101300.58;5162744;57;1140988;-69
2022/05/01 05:51:48;;;;;;;26.33;13.10;;;;;;;9.80;76.78;101298.86;5157456;56;1141110;-69
2022/05/01 05:56:54;;;;;;;24.30;11.47;;;;;;;9.97;75.95;101298.28;5165620;56;1141043;-71
2022/05/01 06:02:00;;;;;;;24.33;10.20;;;;;;;10.18;75.41;101292.53;5116548;57;1140983;-68
2022/05/01 06:07:06;;;;;;;19.60;10.03;;;;;;;10.52;74.07;101292.55;5141752;57;1143144;-72
2022/05/01 06:12:12;;;;;;;18.77;9.53;;;;;;;10.72;72.30;101297.83;5145675;56;1143163;-69
2022/05/01 06:17:18;;;;;;;20.30;9.70;;;;;;;10.85;69.99;101292.58;4950535;56;1141315;-70
2022/05/01 06:22:23;;;;;;;22.37;10.27;;;;;;;11.03;69.31;101299.77;4594931;56;1146773;-73
2022/05/01 06:27:31;;;;;;;20.97;9.10;;;;;;;11.26;69.14;101301.25;4666372;56;1143336;-69
2022/05/01 06:32:37;;;;;;;17.42;9.10;;;;;;;11.47;68.42;101292.77;4634528;56;1253537;-71
2022/05/01 06:37:42;;;;;;;18.16;8.48;;;;;;;11.78;67.84;101292.36;4622477;56;1150511;-71
2022/05/01 06:42:49;;;;;;;17.80;9.77;;;;;;;11.91;67.21;101300.33;4917646;56;1140827;-70
2022/05/01 06:47:54;;;;;;;15.67;8.00;;;;;;;12.29;66.80;101305.53;5023698;57;1141228;-72
2022/05/01 06:53:00;;;;;;;15.00;7.57;;;;;;;12.51;62.95;101299.52;4984124;58;1141286;-72
2022/05/01 06:58:06;;;;;;;13.93;6.47;;;;;;;12.67;61.41;101306.24;5022550;56;1141145;-70
2022/05/01 07:03:12;;;;;;;12.00;7.47;;;;;;;12.93;61.88;101304.78;5005384;57;1139033;-72
2022/05/01 07:08:19;;;;;;;12.53;7.80;;;;;;;13.13;61.15;101308.11;4935815;58;1139240;-73
2022/05/01 07:13:25;;;;;;;16.90;7.83;;;;;;;13.37;61.78;101305.42;5010362;57;1139141;-67
2022/05/01 07:18:31;;;;;;;14.05;7.20;;;;;;;13.62;59.83;101300.38;4813167;56;1141072;-70
2022/05/01 07:23:36;;;;;;;16.40;6.70;;;;;;;13.75;58.24;101305.09;4637435;56;1141062;-73
2022/05/01 07:28:42;;;;;;;12.17;6.73;;;;;;;13.96;58.11;101303.89;4608510;57;1141045;-72
2022/05/01 07:33:48;;;;;;;11.47;7.87;;;;;;;14.37;58.32;101304.07;4617051;57;1141039;-68
2022/05/01 07:38:53;;;;;;;10.93;6.60;;;;;;;14.37;58.32;101304.07;4636659;57;1140982;-72
2022/05/01 07:43:59;;;;;;;8.93;5.87;;;;;;;14.68;57.16;101305.59;4617253;57;1141187;-70
2022/05/01 07:49:05;;;;;;;12.90;6.73;;;;;;;14.85;57.11;101302.88;4618609;57;1138900;-70
2022/05/01 07:54:10;;;;;;;11.30;6.07;;;;;;;15.01;56.95;101303.28;4617858;57;1141019;-72
2022/05/01 07:59:16;;;;;;;11.13;5.97;;;;;;;15.11;54.73;101298.90;4651648;56;1141242;-69
2022/05/01 08:04:32;;;;;;;9.57;6.27;;;;;;;15.45;55.76;101295.52;4687099;56;1140986;-70
2022/05/01 08:09:38;;;;;;;9.88;6.00;;;;;;;15.59;53.65;101288.55;4629104;57;1139080;-67
2022/05/01 08:14:44;;;;;;;7.70;4.95;;;;;;;15.62;52.11;101283.44;4682141;56;1138884;-71
2022/05/01 08:25:13;;;;;;;10.36;5.32;;;;;;;15.91;48.62;101281.73;5183185;56;1140952;-72
2022/05/01 08:30:19;;;;;;;11.13;6.00;;;;;;;16.02;48.04;101274.14;4676769;56;1140966;-71
2022/05/01 08:35:25;;;;;;;8.00;5.67;;;;;;;16.23;46.05;101280.22;4649452;55;1140972;-69
2022/05/01 08:40:31;;;;;;;8.83;6.43;;;;;;;16.37;48.34;101278.50;4710941;56;1156558;-73
2022/05/01 08:46:14;;;;;;;14.43;6.77;;;;;;;16.63;49.29;101275.35;4675665;56;1138969;-70
2022/05/01 08:51:22;;;;;;;8.27;5.37;;;;;;;16.85;48.98;101266.55;4625369;55;1141057;-71
2022/05/01 08:56:28;;;;;;;12.93;6.47;;;;;;;17.14;49.15;101263.84;4665153;55;1138982;-72
2022/05/01 09:01:35;;;;;;;11.63;6.73;;;;;;;17.52;49.83;101266.09;4615642;56;1141057;-72
2022/05/01 09:06:44;;;;;;;13.53;6.23;;;;;;;17.84;48.84;101263.05;4749752;56;1140905;-71
2022/05/01 09:17:24;;;;;;;7.43;4.70;;;;;;;18.19;44.80;101257.77;5251818;56;1139127;-72
2022/05/01 09:22:31;;;;;;;10.27;5.07;;;;;;;18.16;42.84;101255.41;5206822;56;1139016;-72
2022/05/01 09:27:37;;;;;;;9.93;4.67;;;;;;;18.19;45.67;101252.41;5192458;56;1141259;-69
2022/05/01 09:32:44;;;;;;;7.77;4.67;;;;;;;18.42;45.40;101246.64;5230404;56;1138950;-71
2022/05/01 09:37:51;;;;;;;8.23;4.90;;;;;;;18.34;43.48;101250.55;5160818;56;1138924;-70
2022/05/01 09:42:56;;;;;;;5.20;3.90;;;;;;;18.45;43.72;101241.83;5161758;56;1139028;-70
2022/05/01 09:48:02;;;;;;;3.93;3.00;;;;;;;18.64;42.33;101235.48;5161873;56;1138982;-73
2022/05/01 09:53:08;;;;;;;8.90;3.70;;;;;;;18.55;36.76;101227.00;5166066;56;1139059;-70
2022/05/01 09:58:16;;;;;;;6.07;4.50;;;;;;;18.43;37.79;101230.91;5248307;56;1139028;-72
2022/05/01 10:03:24;;;;;;;7.77;4.57;;;;;;;18.55;39.68;101228.34;5215355;56;1139055;-71
2022/05/01 10:08:30;;;;;;;8.87;3.73;;;;;;;18.74;37.95;101214.83;5079950;58;1138945;-72
2022/05/01 10:13:37;;;;;;;23.43;6.90;;;;;;;18.90;36.16;101218.14;5079800;58;1139272;-71
2022/05/01 10:18:45;;;;;;;6.97;3.70;;;;;;;18.97;39.15;101211.13;5079794;58;1141116;-73
2022/05/01 10:23:52;;;;;;;9.17;3.97;;;;;;;19.12;38.35;101202.02;5113362;57;1136940;-71
2022/05/01 10:29:08;;;;;;;7.10;3.70;;;;;;;19.17;39.57;101198.38;5153751;57;1136896;-72
2022/05/01 10:34:40;;;;;;;4.72;3.62;;;;;;;19.52;39.55;101194.75;5149253;57;1136962;-70
2022/05/01 10:39:48;;;;;;;4.53;3.63;;;;;;;19.78;37.28;101194.19;5163791;57;1136925;-71
2022/05/01 10:44:54;;;;;;;6.85;3.60;;;;;;;20.07;38.70;101191.58;5162344;57;1136316;-72
2022/05/01 10:50:09;;;;;;;11.50;3.22;;;;;;;19.87;36.58;101187.83;5148903;57;1137167;-70
2022/05/01 10:55:15;;;;;;;9.58;3.15;;;;;;;19.57;37.53;101181.67;5119764;57;1139055;-71
2022/05/01 11:00:21;;;;;;;5.53;3.20;;;;;;;19.27;35.10;101178.98;5163736;57;1136947;-69
2022/05/01 11:05:47;;;;;;;9.70;4.40;;;;;;;19.19;35.55;101181.63;5173850;56;1137177;-74
2022/05/01 11:10:56;;;;;;;5.42;2.95;;;;;;;19.07;34.74;101178.88;5176681;56;1139217;-69
2022/05/01 11:16:02;;;;;;;3.45;3.00;;;;;;;18.87;36.82;101175.05;5159024;56;1138943;-69
2022/05/01 11:21:29;;;;;;;6.42;3.80;;;;;;;18.88;36.66;101168.70;5148335;56;1138908;-70
2022/05/01 11:26:35;;;;;;;9.03;3.43;;;;;;;18.94;37.87;101162.69;5088141;57;1138963;-74
2022/05/01 11:31:44;;;;;;;9.43;4.53;;;;;;;18.98;38.62;101162.73;5175773;56;1139002;-76
2022/05/01 11:36:55;;;;;;;7.60;3.08;;;;;;;19.01;38.28;101154.03;5170204;56;1139006;-76
2022/05/01 11:42:02;;;;;;;4.22;3.25;;;;;;;18.97;38.60;101152.16;5185586;56;1139121;-74
2022/05/01 11:47:09;;;;;;;4.17;3.17;;;;;;;18.95;38.81;101149.63;5193585;56;1138988;-74
2022/05/01 11:52:16;;;;;;;5.50;2.92;;;;;;;18.96;38.37;101146.45;5247966;56;1139036;-72
2022/05/01 12:03:03;;;;;;;5.53;3.98;;;;;;;19.03;35.58;101142.16;5247977;56;1139001;-72
2022/05/01 12:08:09;;;;;;;14.43;9.60;;;;;;;19.20;35.38;101132.36;5156716;57;1138988;-74
2022/05/01 12:13:28;;;;;;;6.67;2.95;;;;;;;19.57;35.24;101125.33;5161391;57;1141553;-72
2022/05/01 12:18:34;;;;;;;6.04;2.34;;;;;;;19.89;34.89;101126.77;5161185;57;1139019;-75
2022/05/01 12:23:44;;;;;;;4.65;2.70;;;;;;;20.20;32.92;101121.61;5161240;57;1138995;-74
2022/05/01 12:28:50;;;;;;;3.67;2.65;;;;;;;20.36;31.52;101124.33;5161441;57;1139047;-73
2022/05/01 12:33:56;;;;;;;3.98;3.17;;;;;;;20.37;30.22;101118.46;5161431;57;1139044;-75
2022/05/01 12:39:04;;;;;;;6.33;3.22;;;;;;;20.28;30.82;101116.25;5157273;57;1138963;-72
2022/05/01 12:44:11;;;;;;;5.53;3.70;;;;;;;20.21;31.55;101113.05;5159667;57;1139143;-72
2022/05/01 12:49:28;;;;;;;5.96;3.00;;;;;;;20.07;31.90;101107.83;5161891;57;1139122;-75
2022/05/01 12:54:35;;;;;;;3.85;2.62;;;;;;;19.81;32.28;101109.31;5191479;56;1136436;-75
2022/05/01 12:59:41;;;;;;;4.67;2.70;;;;;;;19.63;32.37;101112.11;5169514;56;1136940;-71
2022/05/01 13:04:58;;;;;;;4.08;2.52;;;;;;;19.69;33.44;101103.08;5161807;57;1136904;-74
2022/05/01 13:10:05;;;;;;;13.83;3.00;;;;;;;19.99;33.86;101099.28;5160929;57;1136961;-71
2022/05/01 13:15:11;;;;;;;10.65;3.75;;;;;;;20.40;33.19;101089.08;5161710;57;1138976;-71
2022/05/01 13:20:17;;;;;;;6.46;3.04;;;;;;;20.84;32.37;101086.83;5161573;57;1139093;-76
2022/05/01 13:25:23;;;;;;;6.35;4.00;;;;;;;21.00;30.56;101078.21;5161756;57;1137006;-75
2022/05/01 13:30:28;;;;;;;19.02;15.30;;;;;;;20.91;30.22;101077.08;5161820;57;1136950;-76
2022/05/01 13:35:34;;;;;;;6.70;4.90;;;;;;;20.78;30.70;101068.17;5161651;57;1141139;-74
2022/05/01 13:46:03;;;;;;;4.10;2.80;;;;;;;20.75;30.34;101066.36;5161760;57;1136942;-77
2022/05/01 13:51:09;;;;;;;7.62;2.85;;;;;;;20.54;30.14;101059.67;5161692;57;1134358;-74
2022/05/01 13:56:16;;;;;;;5.40;2.50;;;;;;;20.44;29.87;101060.87;5222799;56;1139109;-74
2022/05/01 14:01:22;;;;;;;8.33;2.47;;;;;;;20.40;32.20;101053.64;5163633;56;1139198;-76
2022/05/01 14:06:27;;;;;;;8.60;3.17;;;;;;;20.46;31.99;101058.36;5189945;56;1139012;-71
2022/05/01 14:11:33;;;;;;;15.03;3.00;;;;;;;20.54;32.45;101055.64;5155993;57;1138983;-74
2022/05/01 14:16:41;;;;;;;4.76;2.70;;;;;;;20.54;32.74;101054.30;5137538;57;1141151;-73
2022/05/01 14:21:48;;;;;;;6.03;2.90;;;;;;;20.56;32.58;101053.63;5159517;57;1139006;-72
2022/05/01 14:26:54;;;;;;;12.13;2.52;;;;;;;20.49;32.98;101057.15;5157832;57;1138910;-73
2022/05/01 14:32:17;;;;;;;4.47;2.27;;;;;;;20.46;33.20;101054.33;5156496;57;1141085;-72
2022/05/01 14:37:33;;;;;;;17.87;3.27;;;;;;;20.47;32.73;101052.48;5148778;57;1138981;-73
2022/05/01 14:42:48;;;;;;;3.00;2.45;;;;;;;20.41;32.93;101044.58;4993680;59;1141083;-71
2022/05/01 14:48:34;;;;;;;3.22;2.70;;;;;;;20.31;33.16;101039.87;5079139;58;1139119;-75
2022/05/01 14:53:41;;;;;;;9.15;3.37;;;;;;;20.26;33.19;101040.87;5079131;58;1139214;-72
2022/05/01 15:09:40;;;;;;;8.00;3.17;;;;;;;20.63;33.50;101026.88;5076393;57;1138990;-71
2022/05/01 15:14:47;;;;;;;6.55;3.70;;;;;;;20.68;34.00;101019.99;4997440;58;1139007;-72
2022/05/01 15:20:00;;;;;;;5.55;3.58;;;;;;;20.77;33.80;101034.27;5079581;58;1137205;-72
2022/05/01 15:25:21;;;;;;;6.83;3.37;;;;;;;20.69;33.33;101031.08;4998382;58;1136936;-74
2022/05/01 15:30:41;;;;;;;10.50;4.80;;;;;;;20.70;33.98;101022.00;4997988;59;1137212;-72
2022/05/01 15:35:48;;;;;;;9.85;6.17;;;;;;;20.50;33.98;101032.80;5156652;56;1138976;-72
2022/05/01 15:41:10;;;;;;;9.03;4.50;;;;;;;20.21;33.76;101027.09;5137392;57;1137305;-72
2022/05/01 15:46:30;;;;;;;6.00;3.70;;;;;;;19.97;34.53;101034.16;5130494;56;1136904;-71
2022/05/01 15:57:04;;;;;;;11.33;3.20;;;;;;;19.81;37.51;101027.94;5018303;56;1140997;-73
2022/05/01 16:02:12;;;;;;;43.73;20.75;;;;;;;19.92;38.56;101027.61;5250183;56;1141090;-72
2022/05/01 16:07:43;;;;;;;22.20;11.95;;;;;;;20.00;39.09;101028.47;5181356;56;1142844;-74
2022/05/01 16:13:05;;;;;;;6.70;4.08;;;;;;;20.08;38.72;101025.42;5212996;56;1143157;-73
2022/05/01 16:18:21;;;;;;;4.83;4.40;;;;;;;20.05;38.85;101024.41;5145485;56;1138998;-73
2022/05/01 16:23:43;;;;;;;8.70;3.80;;;;;;;19.93;39.43;101027.44;5078033;56;1139182;-72
2022/05/01 16:29:12;;;;;;;5.87;3.35;;;;;;;19.75;39.28;101023.23;4641348;56;1168392;-73
2022/05/01 16:34:22;;;;;;;6.87;4.07;;;;;;;19.54;39.46;101027.74;4632663;56;1138936;-71
2022/05/01 16:39:29;;;;;;;4.33;3.47;;;;;;;19.30;39.99;101047.24;4658122;57;1138864;-72
2022/05/01 16:44:35;;;;;;;6.70;3.00;;;;;;;19.02;41.15;101052.50;4717517;57;1138887;-73
2022/05/01 16:49:42;;;;;;;8.43;4.60;;;;;;;18.90;41.71;101054.63;4712211;56;1138940;-73
2022/05/01 16:54:50;;;;;;;8.23;3.65;;;;;;;18.67;41.66;101060.17;4646724;57;1139014;-72
2022/05/01 16:59:57;;;;;;;11.46;3.18;;;;;;;18.50;42.30;101069.41;4698026;56;1138942;-73
2022/05/01 17:05:13;;;;;;;8.05;3.45;;;;;;;18.41;42.70;101071.70;4640929;56;1257970;-72
2022/05/01 17:10:27;;;;;;;13.44;3.86;;;;;;;18.30;42.93;101074.64;4547940;57;1138934;-74
2022/05/01 17:15:35;;;;;;;11.93;3.50;;;;;;;18.23;43.27;101081.09;4606605;57;1141128;-74
2022/05/01 17:21:17;;;;;;;6.92;4.10;;;;;;;18.14;42.97;101075.34;4620248;57;1141001;-72
2022/05/01 17:26:49;;;;;;;9.35;5.20;;;;;;;17.93;42.98;101082.83;4603038;56;1138840;-73
2022/05/01 17:32:03;;;;;;;14.38;6.70;;;;;;;17.77;43.11;101084.84;4534618;57;1139153;-72
2022/05/01 17:37:13;;;;;;;16.37;8.30;;;;;;;17.61;43.37;101089.99;4504931;57;1144435;-74
2022/05/01 17:42:27;;;;;;;18.07;9.75;;;;;;;17.54;43.61;101084.91;4586604;57;1141097;-74
2022/05/01 17:47:30;;;;;;;21.97;8.38;;;;;;;17.34;43.69;101085.52;4576020;57;1141260;-74
2022/05/01 17:52:37;;;;;;;25.15;12.00;;;;;;;17.20;44.02;101086.84;4563868;57;1141058;-73
2022/05/01 17:57:45;;;;;;;25.80;11.35;;;;;;;17.08;44.23;101085.36;4549040;57;1143093;-72
2022/05/01 18:03:36;;;;;;;24.67;10.68;;;;;;;16.98;44.50;101089.04;4524733;57;1143233;-73
2022/05/01 18:15:17;;;;;;;13.40;5.75;;;;;;;16.85;44.78;101098.23;4621343;56;1259397;-72
2022/05/01 18:20:33;;;;;;;17.64;6.08;;;;;;;16.68;44.98;101098.13;4636828;56;1141055;-73
2022/05/01 18:26:16;;;;;;;14.75;6.67;;;;;;;16.47;45.21;101106.31;4644388;56;1141012;-71
2022/05/01 18:31:26;;;;;;;11.70;6.00;;;;;;;16.29;45.52;101108.01;4645158;56;1140960;-73
2022/05/01 18:36:37;;;;;;;13.38;6.94;;;;;;;16.13;45.84;101117.91;4639216;56;1141017;-73
2022/05/01 18:41:46;;;;;;;20.10;8.90;;;;;;;16.12;46.18;101116.23;4625515;56;1148704;-71
2022/05/01 18:46:55;;;;;;;34.85;11.40;;;;;;;16.11;46.32;101127.88;4618656;56;1150863;-72
2022/05/01 18:52:04;;;;;;;20.88;9.48;;;;;;;16.06;46.54;101130.95;4637919;56;1143211;-70
2022/05/01 18:57:13;;;;;;;16.88;9.10;;;;;;;16.02;46.47;101141.58;4657695;56;1141160;-71
2022/05/01 19:02:20;;;;;;;15.38;10.50;;;;;;;16.05;46.99;101153.77;4651164;56;1141112;-72
2022/05/01 19:07:55;;;;;;;33.25;16.40;;;;;;;16.08;47.04;101149.02;4651858;56;1142990;-72
2022/05/01 19:13:33;;;;;;;58.28;33.70;;;;;;;16.09;47.40;101149.36;4690116;56;1257852;-72
2022/05/01 19:19:08;;;;;;;72.87;43.35;;;;;;;16.09;47.40;101149.36;4559156;56;1143126;-72
2022/05/01 19:30:12;;;;;;;69.40;44.75;;;;;;;15.92;47.54;101156.71;4625838;57;1143064;-71
2022/05/01 19:35:34;;;;;;;57.05;33.75;;;;;;;15.77;47.93;101162.92;4636644;56;1146493;-72
2022/05/01 19:41:25;;;;;;;43.33;27.62;;;;;;;15.75;48.23;101164.04;4636846;56;1143190;-72
2022/05/01 19:52:39;;;;;;;53.04;21.74;;;;;;;15.53;48.37;101177.08;4627619;57;1152081;-72
2022/05/01 19:57:46;;;;;;;48.33;22.67;;;;;;;15.38;48.54;101173.94;4703776;56;1143084;-72
2022/05/01 20:02:55;;;;;;;62.23;30.15;;;;;;;15.09;48.72;101176.47;4662343;56;1143118;-72
2022/05/01 20:08:08;;;;;;;59.60;33.80;;;;;;;14.63;48.99;101188.85;4609582;56;1152268;-73
2022/05/01 20:13:12;;;;;;;68.93;37.97;;;;;;;14.40;49.84;101183.25;4969243;56;1143153;-72
2022/05/01 20:18:21;;;;;;;87.90;42.33;;;;;;;14.48;50.45;101185.30;5164342;56;1143383;-73
2022/05/01 20:23:34;;;;;;;96.93;42.17;;;;;;;14.34;50.49;101178.43;5180701;56;1143156;-72
2022/05/01 20:29:04;;;;;;;53.20;26.02;;;;;;;14.21;50.81;101177.23;5187632;56;1143129;-71
2022/05/01 20:34:35;;;;;;;33.33;15.03;;;;;;;14.17;51.21;101174.49;5192553;56;1143087;-71
2022/05/01 20:40:08;;;;;;;30.77;13.50;;;;;;;14.07;51.40;101177.05;5136583;56;1143113;-71
2022/05/01 20:45:21;;;;;;;38.95;13.53;;;;;;;14.09;51.47;101175.59;5249111;56;1143144;-72
2022/05/01 20:50:47;;;;;;;;;;;;;;;14.01;51.64;101174.06;5208641;56;1143458;-72
2022/05/01 20:55:53;;;;;;;66.83;24.53;;;;;;;14.00;51.81;101164.39;5167045;56;976303;-72
2022/05/01 21:01:00;;;;;;;53.50;21.73;;;;;;;13.96;52.18;101164.27;5181661;56;1141142;-72
2022/05/01 21:06:07;;;;;;;16.70;8.47;;;;;;;13.99;52.66;101163.54;5206801;56;1141397;-72
2022/05/01 21:11:15;;;;;;;10.27;4.83;;;;;;;14.02;52.75;101160.64;5202881;56;1139051;-72
2022/05/01 21:16:22;;;;;;;10.08;5.55;;;;;;;14.02;52.77;101169.10;5210473;56;1138293;-71
2022/05/01 21:21:28;;;;;;;9.30;5.00;;;;;;;13.97;53.03;101156.17;5214881;56;1139106;-71
2022/05/01 21:26:34;;;;;;;10.57;4.27;;;;;;;13.99;52.96;101158.70;5237800;56;1136962;-72
2022/05/01 21:37:03;;;;;;;14.20;4.97;;;;;;;13.99;53.00;101174.18;5188826;56;1139029;-72
2022/05/01 21:42:12;;;;;;;10.85;5.12;;;;;;;13.99;53.14;101172.84;5160353;57;1138989;-72
2022/05/01 21:47:18;;;;;;;13.80;6.27;;;;;;;14.02;53.36;101169.95;5160464;57;1139000;-71
2022/05/01 21:52:23;;;;;;;9.83;4.87;;;;;;;13.96;53.26;101176.23;5160411;57;1139045;-72
2022/05/01 21:57:30;;;;;;;8.77;4.70;;;;;;;13.95;53.69;101171.41;5160482;57;1136917;-71
2022/05/01 22:02:37;;;;;;;8.53;4.20;;;;;;;13.90;53.91;101174.09;5160380;57;1136949;-72
2022/05/01 22:07:43;;;;;;;11.63;4.40;;;;;;;13.90;54.12;101184.22;5165454;56;1136861;-71
2022/05/01 22:12:49;;;;;;;13.10;4.83;;;;;;;13.87;54.39;101180.50;5194177;56;1137014;-72
2022/05/01 22:17:57;;;;;;;8.23;4.45;;;;;;;13.83;54.52;101184.37;5228452;56;1141018;-72
2022/05/01 22:23:03;;;;;;;6.90;4.20;;;;;;;13.78;54.88;101191.02;5152986;57;1139037;-72
2022/05/01 22:28:10;;;;;;;6.20;4.73;;;;;;;13.74;55.23;101181.13;5242362;56;1139009;-71
2022/05/01 22:33:16;;;;;;;7.97;4.40;;;;;;;13.69;55.59;101176.17;5244732;56;1138826;-72
2022/05/01 22:38:21;;;;;;;7.63;4.70;;;;;;;13.59;55.75;101177.89;5171934;56;1139053;-71
2022/05/01 22:43:27;;;;;;;7.57;3.83;;;;;;;13.54;56.31;101177.88;5163782;57;1139059;-71
2022/05/01 22:48:34;;;;;;;10.23;5.33;;;;;;;13.41;56.56;101175.36;5163664;57;1138964;-72
2022/05/01 22:53:40;;;;;;;7.73;5.00;;;;;;;13.31;56.73;101177.88;5163759;57;1141285;-72
2022/05/01 22:58:47;;;;;;;7.87;4.73;;;;;;;13.28;57.10;101176.81;5163725;57;1138961;-71
2022/05/01 23:03:53;;;;;;;11.85;5.55;;;;;;;13.26;57.41;101171.25;5163421;57;1139141;-72
2022/05/01 23:08:59;;;;;;;14.53;4.23;;;;;;;13.18;57.75;101166.52;5163642;57;1141109;-72
2022/05/01 23:14:05;;;;;;;8.70;5.43;;;;;;;13.07;58.12;101164.31;5163586;57;1141386;-71
2022/05/01 23:19:11;;;;;;;8.63;4.67;;;;;;;12.89;58.52;101153.30;5163654;57;1139241;-71
2022/05/01 23:24:17;;;;;;;9.10;5.37;;;;;;;12.80;58.49;101161.50;5163627;57;1138917;-71
2022/05/01 23:29:23;;;;;;;10.20;4.70;;;;;;;12.81;58.79;101159.22;5163572;57;1139118;-72
2022/05/01 23:34:29;;;;;;;15.57;5.33;;;;;;;12.78;58.86;101150.16;5163424;57;1141114;-72
2022/05/01 23:39:35;;;;;;;8.78;4.95;;;;;;;12.72;58.95;101156.41;5163584;57;1141097;-72
2022/05/01 23:44:41;;;;;;;7.07;4.73;;;;;;;12.70;58.87;101169.78;5163586;57;1139047;-72
2022/05/01 23:49:46;;;;;;;16.67;6.00;;;;;;;12.67;59.08;101166.91;5163568;57;1139170;-71
2022/05/01 23:54:52;;;;;;;7.67;5.10;;;;;;;12.63;59.20;101156.16;5163668;57;1141180;-71
2022/05/01 23:59:58;;;;;;;12.70;5.20;;;;;;;12.56;59.15;101157.56;5163641;57;1139147;-71
